Observations for LAMPEDUSA ISLAND, Italy (LICD)

LICD 201950Z 06005KT 9999 FEW030 14/09 Q1024
LICD 201850Z 06006KT 9999 FEW030 14/09 Q1023
LICD 201750Z 06005KT 9999 FEW030 14/10 Q1023
LICD 201650Z 06005KT CAVOK 15/09 Q1023  
LICD 201550Z 06005KT CAVOK 15/09 Q1023  
LICD 201450Z 06006KT CAVOK 15/09 Q1023  
LICD 201350Z 07005KT CAVOK 15/09 Q1022  
LICD 201250Z 08006KT CAVOK 16/09 Q1022  
LICD 201150Z 08006KT CAVOK 16/10 Q1023  
LICD 201050Z 08006KT CAVOK 15/11 Q1023  
LICD 200950Z 08008KT CAVOK 15/11 Q1023  
LICD 200850Z 09006KT CAVOK 15/10 Q1023  
LICD 200750Z 10005KT CAVOK 15/10 Q1023  
LICD 200650Z 12005KT CAVOK 14/11 Q1022  
LICD 200550Z 14006KT CAVOK 13/10 Q1021  
LICD 200450Z AUTO 14007KT 9999 NCD 13/10 Q1021  
LICD 200350Z AUTO 15008KT 9999 NCD 14/10 Q1021  
LICD 200250Z AUTO 14009KT 9999 NCD 14/10 Q1021  
LICD 200150Z AUTO 14009KT 9999 NCD 13/11 Q1021  
LICD 200050Z AUTO 14010KT 9999 NCD 14/11 Q1022  
LICD 192350Z AUTO 14009KT 9999 NCD 14/10 Q1022  
LICD 192250Z AUTO 14009KT 9999 NCD 14/11 Q1022  
LICD 192150Z AUTO 15009KT 9999 NCD 14/11 Q1022  
LICD 192050Z 15008KT CAVOK 14/10 Q1022  
LICD 191950Z 14009KT CAVOK 14/11 Q1022